Time;durP1;ratioP1;P1;durP2;ratioP2;P2;SDS_P1;SDS_P2;PMS_P1;PMS_P2;Temp;Humidity;BMP_temperature;BMP_pressure;BME280_temperature;BME280_humidity;BME280_pressure;Samples;Min_cycle;Max_cycle;Signal;HPM_P1;HPM_P2
2024/03/27 00:01:57;;;;;;;1.63;1.30;;;22.60;53.80;;;;;;4977370;28;20181;-68
2024/03/27 00:04:23;;;;;;;1.60;1.40;;;22.60;53.80;;;;;;4977788;28;20181;-68
2024/03/27 00:06:48;;;;;;;1.50;1.10;;;22.60;53.80;;;;;;4961364;28;20188;-67
2024/03/27 00:09:14;;;;;;;1.50;1.10;;;22.60;53.80;;;;;;4977490;28;20196;-68
2024/03/27 00:11:40;;;;;;;2.00;1.27;;;22.60;53.80;;;;;;4994674;28;20188;-69
2024/03/27 00:14:06;;;;;;;1.20;1.10;;;22.60;53.80;;;;;;4995292;28;20212;-69
2024/03/27 00:16:31;;;;;;;1.40;1.20;;;22.60;53.80;;;;;;4976826;28;20693;-68
2024/03/27 00:18:57;;;;;;;1.90;1.37;;;22.60;53.80;;;;;;4994461;28;20412;-67
2024/03/27 00:21:23;;;;;;;1.37;1.00;;;22.60;53.80;;;;;;4976557;28;20201;-68
2024/03/27 00:23:48;;;;;;;1.30;1.13;;;22.60;53.80;;;;;;4995147;28;20219;-68
2024/03/27 00:26:14;;;;;;;1.30;1.10;;;22.60;53.80;;;;;;4976906;28;20523;-67
2024/03/27 00:28:40;;;;;;;1.83;1.20;;;22.60;53.80;;;;;;4994746;28;20557;-68
2024/03/27 00:31:05;;;;;;;1.90;1.17;;;22.60;53.80;;;;;;4994107;28;20208;-68
2024/03/27 00:33:31;;;;;;;1.43;1.20;;;22.60;53.80;;;;;;4977082;28;20173;-68
2024/03/27 00:35:58;;;;;;;1.60;1.30;;;22.60;53.80;;;;;;4960599;28;20173;-69
2024/03/27 00:38:24;;;;;;;1.60;1.40;;;22.60;53.80;;;;;;4960484;28;20213;-68
2024/03/27 00:40:50;;;;;;;1.70;1.10;;;22.60;53.80;;;;;;4994115;28;20436;-69
2024/03/27 00:43:16;;;;;;;1.30;1.10;;;22.60;53.80;;;;;;4993265;28;20515;-68
2024/03/27 00:45:43;;;;;;;1.47;1.30;;;22.60;53.70;;;;;;4976418;28;20169;-68
2024/03/27 00:48:08;;;;;;;1.30;1.20;;;22.60;53.70;;;;;;4994312;28;20427;-68
2024/03/27 00:50:34;;;;;;;1.30;1.20;;;22.60;53.60;;;;;;4975878;28;20463;-68
2024/03/27 00:53:01;;;;;;;1.90;1.27;;;22.60;53.60;;;;;;4993553;28;20173;-68
2024/03/27 00:55:26;;;;;;;1.30;1.10;;;22.60;53.60;;;;;;4993862;28;20926;-68
2024/03/27 00:57:52;;;;;;;1.20;0.93;;;22.60;53.60;;;;;;4959932;28;20459;-68
2024/03/27 01:00:18;;;;;;;1.40;1.13;;;22.60;53.60;;;;;;4994340;28;20192;-69
2024/03/27 01:02:45;;;;;;;1.60;1.27;;;22.60;53.70;;;;;;4976652;28;20268;-69
2024/03/27 01:05:15;;;;;;;1.90;1.20;;;22.60;53.60;;;;;;4993745;28;20416;-67
2024/03/27 01:07:41;;;;;;;1.80;1.23;;;22.60;53.60;;;;;;4993624;28;20490;-68
2024/03/27 01:10:11;;;;;;;1.53;1.33;;;22.60;53.60;;;;;;4975999;28;20440;-68
2024/03/27 01:12:40;;;;;;;1.20;1.10;;;22.60;53.60;;;;;;4959316;28;20432;-68
2024/03/27 01:15:07;;;;;;;1.27;1.10;;;22.60;53.60;;;;;;4976144;28;20424;-68
2024/03/27 01:17:33;;;;;;;1.33;1.00;;;22.60;54.20;;;;;;4976191;28;20979;-68
2024/03/27 01:19:59;;;;;;;1.57;1.37;;;22.60;53.60;;;;;;4975910;28;20436;-68
2024/03/27 01:22:25;;;;;;;1.13;1.03;;;22.60;53.60;;;;;;4975665;28;20435;-67
2024/03/27 01:24:51;;;;;;;1.40;1.20;;;22.60;53.60;;;;;;4960206;28;20504;-69
2024/03/27 01:27:18;;;;;;;1.60;1.40;;;22.50;53.60;;;;;;4976174;28;20648;-68
2024/03/27 01:29:43;;;;;;;1.40;1.20;;;22.60;53.70;;;;;;4993413;28;20231;-67
2024/03/27 01:32:09;;;;;;;1.80;1.30;;;22.50;53.60;;;;;;4975847;28;20455;-68
2024/03/27 01:34:35;;;;;;;1.70;1.30;;;22.60;53.60;;;;;;4975622;28;20181;-69
2024/03/27 01:37:00;;;;;;;1.73;1.23;;;22.50;53.60;;;;;;4993218;28;20593;-69
2024/03/27 01:39:26;;;;;;;1.73;1.37;;;22.50;53.60;;;;;;4992983;28;20553;-68
2024/03/27 01:41:51;;;;;;;1.40;1.30;;;22.50;53.60;;;;;;4975776;28;20212;-68
2024/03/27 01:44:19;;;;;;;1.20;1.07;;;22.50;53.60;;;;;;4993258;28;20628;-68
2024/03/27 01:46:47;;;;;;;1.90;1.50;;;22.50;53.60;;;;;;4975393;28;20216;-68
2024/03/27 01:49:15;;;;;;;1.30;1.20;;;22.50;53.60;;;;;;4993174;28;20444;-68
2024/03/27 01:51:41;;;;;;;1.50;1.20;;;22.50;53.60;;;;;;4975388;28;20434;-68
2024/03/27 01:54:09;;;;;;;1.40;1.20;;;22.50;53.60;;;;;;4975281;28;20427;-67
2024/03/27 01:56:36;;;;;;;1.53;1.40;;;22.50;53.60;;;;;;4975563;28;20544;-68
2024/03/27 01:59:03;;;;;;;1.30;1.13;;;22.50;53.50;;;;;;4993454;28;20416;-68
2024/03/27 02:01:29;;;;;;;1.40;1.23;;;22.50;53.50;;;;;;4975093;28;20440;-68
2024/03/27 02:03:55;;;;;;;1.83;1.30;;;22.50;53.50;;;;;;4993059;28;20460;-68
2024/03/27 02:06:21;;;;;;;1.83;1.37;;;22.50;53.50;;;;;;4975643;28;20408;-69
2024/03/27 02:08:48;;;;;;;1.80;1.40;;;22.50;53.50;;;;;;4993152;28;20424;-68
2024/03/27 02:11:14;;;;;;;1.50;1.30;;;22.50;53.50;;;;;;4993157;28;20436;-68
2024/03/27 02:13:40;;;;;;;1.40;1.27;;;22.50;53.50;;;;;;4992909;28;20416;-69
2024/03/27 02:16:06;;;;;;;1.57;1.47;;;22.50;53.50;;;;;;4992834;28;20173;-69
2024/03/27 02:18:31;;;;;;;1.80;1.50;;;22.50;53.50;;;;;;4975607;28;20572;-67
2024/03/27 02:20:57;;;;;;;1.50;1.30;;;22.50;53.50;;;;;;4975320;28;20283;-69
2024/03/27 02:23:28;;;;;;;2.00;1.40;;;22.50;53.50;;;;;;4960346;28;20185;-68
2024/03/27 02:26:16;;;;;;;1.20;1.10;;;22.50;53.50;;;;;;4996629;28;20169;-66
2024/03/27 02:28:45;;;;;;;1.30;1.20;;;22.50;53.40;;;;;;4996663;28;20401;-68
2024/03/27 02:31:11;;;;;;;1.50;1.40;;;22.40;53.40;;;;;;4996499;28;20440;-68
2024/03/27 02:33:36;;;;;;;2.00;1.23;;;22.40;53.40;;;;;;4978802;28;20424;-68
2024/03/27 02:36:02;;;;;;;2.43;1.70;;;22.40;53.40;;;;;;4996252;28;20470;-68
2024/03/27 02:38:28;;;;;;;1.50;1.30;;;22.40;53.40;;;;;;4962151;28;20675;-68
2024/03/27 02:40:54;;;;;;;1.67;1.40;;;22.50;53.50;;;;;;4978907;28;20474;-68
2024/03/27 02:43:19;;;;;;;1.60;1.50;;;22.40;53.30;;;;;;4977996;28;20219;-68
2024/03/27 02:45:46;;;;;;;1.30;1.10;;;22.50;53.40;;;;;;4995477;28;20540;-69
2024/03/27 02:48:12;;;;;;;1.90;1.50;;;22.40;53.40;;;;;;4978445;28;20188;-68
2024/03/27 02:50:37;;;;;;;1.60;1.40;;;22.40;53.30;;;;;;4978001;28;20474;-68
2024/03/27 02:53:03;;;;;;;1.70;1.60;;;22.40;53.30;;;;;;4996335;28;20412;-68
2024/03/27 02:55:29;;;;;;;1.97;1.60;;;22.40;53.30;;;;;;4962565;28;20212;-68
2024/03/27 02:57:55;;;;;;;1.47;1.27;;;22.40;53.30;;;;;;4978175;28;20344;-68
2024/03/27 03:00:20;;;;;;;1.50;1.30;;;22.40;53.30;;;;;;4978758;28;20200;-68
2024/03/27 03:02:46;;;;;;;1.80;1.40;;;22.40;53.30;;;;;;4978504;28;20667;-67
2024/03/27 03:05:11;;;;;;;1.50;1.40;;;22.40;53.30;;;;;;4978313;28;20655;-68
2024/03/27 03:07:37;;;;;;;1.63;1.50;;;22.40;53.30;;;;;;4996401;28;20177;-67
2024/03/27 03:10:06;;;;;;;1.80;1.57;;;22.40;53.30;;;;;;4978340;28;20683;-68
2024/03/27 03:12:31;;;;;;;1.90;1.50;;;22.40;53.30;;;;;;4978788;28;20259;-69
2024/03/27 03:14:57;;;;;;;1.80;1.57;;;22.40;53.30;;;;;;4978354;28;20451;-69
2024/03/27 03:17:22;;;;;;;1.53;1.43;;;22.40;53.30;;;;;;4977761;28;20220;-67
2024/03/27 03:19:48;;;;;;;1.93;1.60;;;22.40;53.30;;;;;;4995751;28;20193;-68
2024/03/27 03:22:16;;;;;;;1.73;1.47;;;22.40;53.30;;;;;;4995657;28;20173;-68
2024/03/27 03:24:42;;;;;;;1.63;1.43;;;22.40;53.30;;;;;;4978445;28;20303;-67
2024/03/27 03:27:07;;;;;;;1.60;1.50;;;22.40;53.30;;;;;;4995468;28;21241;-67
2024/03/27 03:29:33;;;;;;;1.53;1.30;;;22.40;53.30;;;;;;4995536;28;20440;-68
2024/03/27 03:31:59;;;;;;;3.40;1.37;;;22.40;53.30;;;;;;4995779;28;20181;-66
2024/03/27 03:34:24;;;;;;;1.73;1.50;;;22.40;53.30;;;;;;4961600;28;20196;-68
2024/03/27 03:36:50;;;;;;;1.60;1.50;;;22.30;53.30;;;;;;4977797;28;20188;-68
2024/03/27 03:39:17;;;;;;;1.70;1.30;;;22.40;53.30;;;;;;4977980;28;20180;-68
2024/03/27 03:41:42;;;;;;;1.63;1.50;;;22.30;53.30;;;;;;4977531;28;20185;-68
2024/03/27 03:44:08;;;;;;;1.30;1.20;;;22.30;53.30;;;;;;4995411;28;20495;-68
2024/03/27 03:46:34;;;;;;;2.27;1.60;;;22.30;53.30;;;;;;4995524;28;20181;-67
2024/03/27 03:48:59;;;;;;;1.27;1.17;;;22.30;53.30;;;;;;4994678;28;20551;-68
2024/03/27 03:51:25;;;;;;;1.63;1.40;;;22.40;53.40;;;;;;4977396;28;20240;-67
2024/03/27 03:53:52;;;;;;;1.93;1.60;;;22.40;53.40;;;;;;4995226;28;20192;-68
2024/03/27 03:56:18;;;;;;;2.03;1.80;;;22.30;53.40;;;;;;4977454;28;20268;-68
2024/03/27 03:58:44;;;;;;;2.10;1.90;;;22.30;53.40;;;;;;4977189;28;20539;-68
2024/03/27 04:01:10;;;;;;;2.20;1.83;;;22.30;53.40;;;;;;4995124;28;20208;-68
2024/03/27 04:03:36;;;;;;;1.53;1.43;;;22.30;53.40;;;;;;4977393;28;20488;-68
2024/03/27 04:06:02;;;;;;;1.30;1.17;;;22.30;53.50;;;;;;4961303;28;20938;-68
2024/03/27 04:08:27;;;;;;;1.40;1.30;;;22.30;53.50;;;;;;4977361;28;20662;-67
2024/03/27 04:10:53;;;;;;;1.60;1.37;;;22.30;53.50;;;;;;4976881;28;20440;-68
2024/03/27 04:13:19;;;;;;;1.40;1.30;;;22.40;53.50;;;;;;4977372;28;20671;-68
2024/03/27 04:15:45;;;;;;;1.50;1.07;;;22.40;53.50;;;;;;4961232;28;20320;-68
2024/03/27 04:18:10;;;;;;;1.60;1.50;;;22.40;53.50;;;;;;4977326;28;20663;-68
2024/03/27 04:20:42;;;;;;;1.40;1.30;;;22.40;53.50;;;;;;4995147;28;20451;-69
2024/03/27 04:23:10;;;;;;;1.40;1.30;;;22.40;53.50;;;;;;4976920;28;20339;-68
2024/03/27 04:25:35;;;;;;;1.30;1.20;;;22.40;53.50;;;;;;4977043;28;20445;-67
2024/03/27 04:28:01;;;;;;;1.90;1.67;;;22.40;53.50;;;;;;4976719;28;20458;-68
2024/03/27 04:30:26;;;;;;;1.50;1.30;;;22.40;53.50;;;;;;4976645;28;20204;-67
2024/03/27 04:32:53;;;;;;;1.97;1.77;;;22.40;53.40;;;;;;4994439;28;20192;-68
2024/03/27 04:35:19;;;;;;;1.40;1.30;;;22.40;53.40;;;;;;4976481;28;20781;-68
2024/03/27 04:37:45;;;;;;;1.40;1.30;;;22.40;53.30;;;;;;4977051;28;20844;-68
2024/03/27 04:40:11;;;;;;;2.00;1.60;;;22.40;53.30;;;;;;4976703;28;20446;-69
2024/03/27 04:42:37;;;;;;;1.57;1.30;;;22.40;53.30;;;;;;4994429;28;20408;-68
2024/03/27 04:45:08;;;;;;;1.67;1.50;;;22.40;53.30;;;;;;4976459;28;20412;-68
2024/03/27 04:47:35;;;;;;;2.10;1.60;;;22.40;53.30;;;;;;4994635;28;20494;-68
2024/03/27 04:50:01;;;;;;;1.83;1.50;;;22.40;53.30;;;;;;4994003;28;20467;-69
2024/03/27 04:52:27;;;;;;;2.07;1.60;;;22.40;53.30;;;;;;4994258;28;20416;-68
2024/03/27 04:54:52;;;;;;;1.70;1.60;;;22.40;53.30;;;;;;4994042;28;20897;-68
2024/03/27 04:57:18;;;;;;;1.73;1.63;;;22.40;53.30;;;;;;4994159;28;20292;-69
2024/03/27 04:59:45;;;;;;;1.53;1.30;;;22.40;53.30;;;;;;4993729;28;20350;-67
2024/03/27 05:02:11;;;;;;;2.20;1.63;;;22.40;53.30;;;;;;4975955;28;20184;-69
2024/03/27 05:04:37;;;;;;;1.60;1.30;;;22.40;53.30;;;;;;4994061;28;20435;-68
2024/03/27 05:07:03;;;;;;;2.00;1.63;;;22.40;53.30;;;;;;4960041;28;20421;-68
2024/03/27 05:09:30;;;;;;;1.87;1.53;;;22.40;53.30;;;;;;4993821;28;20979;-68
2024/03/27 05:11:58;;;;;;;1.50;1.40;;;22.40;53.30;;;;;;4960088;28;20427;-68
2024/03/27 05:14:23;;;;;;;1.33;1.23;;;22.30;53.20;;;;;;4993764;28;20419;-69
2024/03/27 05:16:49;;;;;;;1.50;1.30;;;22.30;53.30;;;;;;4993806;28;20416;-68
2024/03/27 05:19:15;;;;;;;1.50;1.40;;;22.40;53.30;;;;;;4975825;28;20640;-69
2024/03/27 05:21:40;;;;;;;1.50;1.20;;;22.30;53.30;;;;;;4993660;28;20173;-67
2024/03/27 05:24:06;;;;;;;1.50;1.30;;;22.30;53.30;;;;;;4976395;28;20228;-69
2024/03/27 05:26:32;;;;;;;1.80;1.40;;;22.30;53.30;;;;;;4993318;28;20546;-68
2024/03/27 05:29:01;;;;;;;1.67;1.40;;;22.30;53.30;;;;;;4976083;28;20204;-69
2024/03/27 05:31:26;;;;;;;1.47;1.37;;;22.30;53.30;;;;;;4975275;28;20207;-68
2024/03/27 05:33:52;;;;;;;1.67;1.43;;;22.30;53.30;;;;;;4993306;28;20503;-68
2024/03/27 05:36:18;;;;;;;1.83;1.33;;;22.30;53.30;;;;;;4993915;28;20300;-68
2024/03/27 05:38:44;;;;;;;1.27;1.17;;;22.30;53.30;;;;;;4976210;28;20452;-68
2024/03/27 05:41:09;;;;;;;1.40;1.27;;;22.40;53.40;;;;;;4993208;28;20624;-69
2024/03/27 05:43:35;;;;;;;1.60;1.30;;;22.40;53.30;;;;;;4975702;28;20185;-68
2024/03/27 05:46:00;;;;;;;1.90;1.50;;;22.30;53.20;;;;;;4975626;28;20177;-69
2024/03/27 05:48:27;;;;;;;1.60;1.50;;;22.30;53.30;;;;;;4993344;28;20173;-68
2024/03/27 05:50:53;;;;;;;1.77;1.40;;;22.30;53.20;;;;;;4993144;28;20695;-68
2024/03/27 05:53:22;;;;;;;1.20;1.10;;;22.30;53.30;;;;;;4993393;28;20531;-68
2024/03/27 05:55:58;;;;;;;1.60;1.50;;;22.30;53.20;;;;;;4993008;28;20447;-68
2024/03/27 05:58:24;;;;;;;1.80;1.50;;;22.30;53.20;;;;;;4976469;28;20498;-68
2024/03/27 06:00:50;;;;;;;2.00;1.60;;;22.30;53.20;;;;;;4979751;28;20527;-69
2024/03/27 06:03:16;;;;;;;1.63;1.53;;;22.30;53.20;;;;;;4979240;28;20628;-68
2024/03/27 06:05:42;;;;;;;2.97;1.50;;;22.30;53.20;;;;;;4997061;28;20516;-69
2024/03/27 06:08:08;;;;;;;1.93;1.60;;;22.30;53.30;;;;;;4979092;28;20188;-69
2024/03/27 06:10:34;;;;;;;1.70;1.40;;;22.30;53.20;;;;;;4979209;28;20254;-69
2024/03/27 06:13:04;;;;;;;1.50;1.07;;;22.30;53.20;;;;;;4996451;28;20990;-69
2024/03/27 06:15:32;;;;;;;2.03;1.50;;;22.30;53.30;;;;;;4963402;28;20412;-68
2024/03/27 06:18:01;;;;;;;1.60;1.50;;;22.40;53.30;;;;;;4978693;28;20452;-69
2024/03/27 06:20:27;;;;;;;1.50;1.30;;;22.30;53.20;;;;;;4996776;28;20434;-69
2024/03/27 06:22:54;;;;;;;1.70;1.30;;;22.30;53.20;;;;;;4996996;28;20419;-68
2024/03/27 06:25:19;;;;;;;1.50;1.40;;;22.30;53.20;;;;;;4979618;28;20177;-68
2024/03/27 06:27:45;;;;;;;1.67;1.20;;;22.30;53.30;;;;;;4996702;28;20989;-68
2024/03/27 06:30:12;;;;;;;1.77;1.60;;;22.40;53.50;;;;;;4996608;28;20533;-68
2024/03/27 06:32:39;;;;;;;1.07;0.90;;;22.30;53.40;;;;;;4996893;28;20173;-66
2024/03/27 06:35:06;;;;;;;1.50;1.30;;;22.40;53.50;;;;;;4947665;28;20430;-68
2024/03/27 06:37:32;;;;;;;1.20;1.00;;;22.40;53.60;;;;;;4996868;28;20494;-68
2024/03/27 06:39:58;;;;;;;1.37;1.10;;;22.40;53.60;;;;;;4996730;28;20459;-69
2024/03/27 06:42:24;;;;;;;1.60;1.07;;;22.40;53.60;;;;;;4978509;28;20177;-69
2024/03/27 06:44:50;;;;;;;1.80;1.20;;;22.40;53.70;;;;;;4996843;28;20921;-69
2024/03/27 06:47:18;;;;;;;1.30;1.20;;;22.40;53.70;;;;;;4997318;28;20177;-69
2024/03/27 06:49:43;;;;;;;1.63;1.10;;;22.40;53.70;;;;;;4978802;28;20307;-68
2024/03/27 06:52:09;;;;;;;1.40;1.20;;;22.40;53.70;;;;;;4997217;28;20518;-69
2024/03/27 06:54:35;;;;;;;1.97;1.40;;;22.40;53.70;;;;;;4978810;28;20204;-68
2024/03/27 06:57:00;;;;;;;1.30;1.20;;;22.50;53.80;;;;;;4978836;28;20636;-68
2024/03/27 06:59:26;;;;;;;1.57;1.47;;;22.50;53.70;;;;;;4978480;28;20272;-69
2024/03/27 07:01:51;;;;;;;1.40;1.20;;;22.50;53.70;;;;;;4978733;28;20169;-68
2024/03/27 07:04:17;;;;;;;1.37;1.20;;;22.50;53.70;;;;;;4996269;28;20173;-68
2024/03/27 07:06:42;;;;;;;1.60;1.30;;;22.50;53.70;;;;;;4995680;28;20215;-67
2024/03/27 07:09:08;;;;;;;1.73;1.60;;;22.50;53.70;;;;;;4977804;28;20268;-68
2024/03/27 07:11:34;;;;;;;1.47;1.20;;;22.50;53.70;;;;;;4995948;28;20557;-67
2024/03/27 07:14:00;;;;;;;1.40;1.30;;;22.50;53.70;;;;;;4978659;28;20173;-69
2024/03/27 07:16:28;;;;;;;1.40;1.30;;;22.50;53.70;;;;;;4995986;28;20177;-69
2024/03/27 07:18:54;;;;;;;1.30;1.17;;;22.50;53.70;;;;;;4977769;28;20491;-69
2024/03/27 07:21:20;;;;;;;2.20;1.40;;;22.50;53.70;;;;;;4977983;28;20521;-68
2024/03/27 07:23:46;;;;;;;1.37;1.27;;;22.50;53.70;;;;;;4996582;28;20227;-68
2024/03/27 07:26:12;;;;;;;1.50;1.40;;;22.60;53.80;;;;;;4995832;28;20907;-68
2024/03/27 07:28:37;;;;;;;1.30;1.20;;;22.60;53.80;;;;;;4977151;28;20313;-67
2024/03/27 07:31:03;;;;;;;1.80;1.20;;;22.60;53.80;;;;;;4977417;28;20243;-68
2024/03/27 07:33:29;;;;;;;1.50;1.40;;;22.60;53.80;;;;;;4995940;28;20655;-68
2024/03/27 07:35:56;;;;;;;1.53;1.40;;;22.60;53.70;;;;;;4995983;28;20185;-69
2024/03/27 07:38:22;;;;;;;1.37;1.27;;;22.60;53.70;;;;;;4962175;28;20209;-68
2024/03/27 07:40:48;;;;;;;1.57;1.20;;;22.60;53.80;;;;;;4995949;28;20432;-68
2024/03/27 07:43:14;;;;;;;1.77;1.63;;;22.60;53.80;;;;;;4962095;28;20627;-67
2024/03/27 07:45:40;;;;;;;1.40;1.30;;;22.60;53.80;;;;;;4976321;28;20409;-69
2024/03/27 07:48:06;;;;;;;1.50;1.17;;;22.60;53.80;;;;;;4975827;28;20710;-69
2024/03/27 07:50:32;;;;;;;1.50;1.40;;;22.60;53.80;;;;;;4959673;28;20502;-68
2024/03/27 07:52:58;;;;;;;1.00;0.90;;;22.60;53.80;;;;;;4975997;28;20895;-68
2024/03/27 07:55:25;;;;;;;1.60;1.37;;;22.60;54.30;;;;;;4993435;28;20466;-68
2024/03/27 07:57:51;;;;;;;1.47;1.17;;;22.60;53.80;;;;;;4993008;28;20949;-69
2024/03/27 08:00:18;;;;;;;1.40;1.20;;;22.60;53.80;;;;;;4975704;28;20240;-68
2024/03/27 08:02:43;;;;;;;1.63;1.20;;;22.60;53.80;;;;;;4993878;28;20200;-68
2024/03/27 08:05:09;;;;;;;1.40;1.10;;;22.60;53.80;;;;;;4976257;28;20413;-68
2024/03/27 08:07:35;;;;;;;1.53;1.20;;;22.60;53.80;;;;;;4976421;28;20243;-69
2024/03/27 08:10:03;;;;;;;1.37;1.27;;;22.60;53.80;;;;;;4993955;28;20287;-69
2024/03/27 08:12:29;;;;;;;1.43;1.23;;;22.60;53.80;;;;;;4976430;28;20432;-67
2024/03/27 08:14:55;;;;;;;1.30;1.10;;;22.60;53.80;;;;;;4976267;28;20439;-69
2024/03/27 08:17:20;;;;;;;1.40;1.30;;;22.60;53.80;;;;;;4975872;28;20204;-69
2024/03/27 08:19:46;;;;;;;1.47;1.30;;;22.60;53.80;;;;;;4993696;28;20201;-69
2024/03/27 08:22:11;;;;;;;2.00;1.60;;;22.60;53.80;;;;;;4975407;28;20181;-68
2024/03/27 08:24:37;;;;;;;1.30;1.10;;;22.60;53.80;;;;;;4993318;28;20186;-68
2024/03/27 08:27:04;;;;;;;1.53;1.43;;;22.60;53.80;;;;;;4993404;28;20184;-68
2024/03/27 08:29:30;;;;;;;1.40;1.30;;;22.60;53.80;;;;;;4993140;28;20199;-68
2024/03/27 08:31:57;;;;;;;3.10;1.23;;;22.60;53.80;;;;;;4993376;28;20922;-69
2024/03/27 08:34:22;;;;;;;1.40;1.20;;;22.60;53.80;;;;;;4975700;28;20420;-68
2024/03/27 08:36:48;;;;;;;1.17;0.90;;;22.60;53.80;;;;;;4975419;28;20551;-68
2024/03/27 08:39:15;;;;;;;1.10;1.00;;;22.60;53.80;;;;;;4992836;28;20178;-68
2024/03/27 08:41:41;;;;;;;1.50;1.10;;;22.60;53.80;;;;;;4975078;28;20177;-68
2024/03/27 08:44:07;;;;;;;1.33;1.10;;;22.60;53.80;;;;;;4992893;28;20447;-69
2024/03/27 08:46:33;;;;;;;1.33;1.23;;;22.60;53.80;;;;;;4975478;28;20416;-68
2024/03/27 08:49:00;;;;;;;1.30;1.20;;;22.60;53.80;;;;;;4974786;28;20416;-67
2024/03/27 08:51:26;;;;;;;1.30;1.10;;;22.60;53.80;;;;;;4992541;28;20480;-69
2024/03/27 08:53:52;;;;;;;1.10;0.93;;;22.60;53.80;;;;;;4992401;28;20419;-68
2024/03/27 08:56:19;;;;;;;1.20;1.00;;;22.60;53.80;;;;;;4958921;28;20427;-68
2024/03/27 08:58:45;;;;;;;1.10;1.00;;;22.60;53.80;;;;;;4992308;28;20487;-68
2024/03/27 09:01:18;;;;;;;1.20;1.07;;;22.60;53.80;;;;;;4958694;28;20801;-68
2024/03/27 09:03:45;;;;;;;1.40;1.30;;;22.60;53.80;;;;;;4992175;28;20200;-68
2024/03/27 09:06:13;;;;;;;1.40;1.20;;;22.60;53.80;;;;;;4974828;28;20417;-69
2024/03/27 09:08:39;;;;;;;1.20;1.03;;;22.60;53.80;;;;;;4992284;28;20427;-68
2024/03/27 09:11:07;;;;;;;1.93;1.20;;;22.60;53.80;;;;;;4974630;28;20951;-68
2024/03/27 09:13:33;;;;;;;1.20;1.10;;;22.60;53.80;;;;;;4992471;28;20424;-69
2024/03/27 09:16:01;;;;;;;1.97;1.50;;;22.60;53.80;;;;;;4958634;28;20479;-68
2024/03/27 09:18:27;;;;;;;1.23;1.10;;;22.70;53.90;;;;;;4974945;28;20667;-68
2024/03/27 09:20:54;;;;;;;2.13;1.10;;;22.70;54.00;;;;;;4974578;28;20439;-68
2024/03/27 09:23:20;;;;;;;1.27;1.17;;;22.70;54.00;;;;;;4991789;28;20412;-68
2024/03/27 09:26:00;;;;;;;1.10;0.90;;;22.70;53.90;;;;;;4991891;28;20407;-68
2024/03/27 09:28:26;;;;;;;1.20;1.10;;;22.70;54.00;;;;;;4974391;28;20467;-68
2024/03/27 09:30:53;;;;;;;1.37;1.20;;;22.70;54.00;;;;;;4958435;28;20439;-68
2024/03/27 09:33:18;;;;;;;1.33;1.10;;;22.70;54.00;;;;;;4973625;28;20568;-68
2024/03/27 09:35:46;;;;;;;1.00;0.83;;;22.70;54.00;;;;;;4974122;28;20434;-68
2024/03/27 09:38:12;;;;;;;1.10;0.90;;;22.70;54.00;;;;;;4974318;28;20208;-68
2024/03/27 09:40:47;;;;;;;1.40;1.30;;;22.70;54.00;;;;;;4992066;28;20451;-67
2024/03/27 09:43:14;;;;;;;1.70;1.20;;;22.70;54.00;;;;;;4974297;28;20211;-69
2024/03/27 09:45:43;;;;;;;1.10;0.90;;;22.70;53.90;;;;;;4992115;28;20424;-68
2024/03/27 09:48:09;;;;;;;1.30;1.10;;;22.70;54.00;;;;;;4974551;28;20428;-68
2024/03/27 09:50:36;;;;;;;1.20;0.80;;;22.70;54.00;;;;;;4992255;28;20459;-68
2024/03/27 09:53:04;;;;;;;1.33;0.97;;;22.70;54.00;;;;;;4991556;28;20412;-68
2024/03/27 09:55:36;;;;;;;1.13;1.00;;;22.70;54.00;;;;;;4992093;28;20431;-66
2024/03/27 09:58:06;;;;;;;1.20;1.10;;;22.70;54.00;;;;;;4991597;28;20455;-67
2024/03/27 10:00:36;;;;;;;1.40;1.00;;;22.70;54.00;;;;;;4991599;28;20459;-68
2024/03/27 10:03:02;;;;;;;1.20;1.10;;;22.80;54.00;;;;;;4973843;28;20420;-67
2024/03/27 10:05:28;;;;;;;1.17;1.07;;;22.80;54.10;;;;;;4974683;28;20895;-67
2024/03/27 10:07:54;;;;;;;1.10;0.80;;;22.70;54.00;;;;;;4974047;28;20432;-68
2024/03/27 10:10:20;;;;;;;1.20;0.90;;;22.80;54.00;;;;;;4974117;28;20506;-68
2024/03/27 10:12:47;;;;;;;1.57;1.00;;;22.80;54.10;;;;;;4973866;28;20420;-68
2024/03/27 10:15:12;;;;;;;1.20;1.10;;;22.80;54.00;;;;;;4992025;28;20419;-69
2024/03/27 10:17:38;;;;;;;1.23;1.00;;;22.80;54.00;;;;;;4991348;28;20464;-68
2024/03/27 10:20:06;;;;;;;1.40;1.00;;;22.80;54.00;;;;;;4991798;28;20241;-69
2024/03/27 10:22:34;;;;;;;1.20;0.97;;;22.80;54.00;;;;;;4991605;28;20177;-69
2024/03/27 10:25:02;;;;;;;1.47;1.20;;;22.70;53.90;;;;;;4991986;28;20416;-68
2024/03/27 10:27:29;;;;;;;1.37;1.27;;;22.80;54.00;;;;;;4974215;28;20510;-69
2024/03/27 10:29:54;;;;;;;1.50;1.17;;;22.80;54.00;;;;;;4974385;28;20449;-68
2024/03/27 10:32:22;;;;;;;1.40;1.20;;;22.80;54.00;;;;;;4957836;28;20412;-70
2024/03/27 10:34:48;;;;;;;1.10;1.00;;;22.80;54.00;;;;;;4991475;28;20192;-68
2024/03/27 10:37:15;;;;;;;1.20;1.00;;;22.80;54.00;;;;;;4991621;28;20543;-67
2024/03/27 10:39:45;;;;;;;1.47;1.13;;;22.80;54.00;;;;;;4991680;28;20436;-68
2024/03/27 10:42:15;;;;;;;1.30;1.07;;;22.80;54.00;;;;;;4973853;28;20420;-69
2024/03/27 10:44:46;;;;;;;1.10;0.83;;;22.80;54.00;;;;;;4992897;28;20407;-68
2024/03/27 10:47:16;;;;;;;2.10;1.07;;;22.70;54.00;;;;;;4994845;28;20911;-68
2024/03/27 10:49:43;;;;;;;1.33;1.10;;;22.80;54.10;;;;;;4994992;28;20502;-68
2024/03/27 10:52:14;;;;;;;1.27;0.97;;;22.70;54.00;;;;;;4994612;28;20510;-67
2024/03/27 10:54:42;;;;;;;1.37;1.00;;;22.70;54.00;;;;;;4995029;28;20415;-68
2024/03/27 10:57:10;;;;;;;1.60;0.90;;;22.70;54.00;;;;;;4977494;28;20563;-69
2024/03/27 10:59:36;;;;;;;1.00;0.90;;;22.70;54.00;;;;;;4961167;28;20935;-67
2024/03/27 11:02:03;;;;;;;1.40;1.30;;;22.70;53.90;;;;;;4977731;28;20499;-68
2024/03/27 11:04:31;;;;;;;1.30;1.10;;;22.70;54.00;;;;;;4994834;28;20503;-69
2024/03/27 11:06:58;;;;;;;1.03;0.90;;;22.70;53.90;;;;;;4960886;28;20463;-69
2024/03/27 11:09:24;;;;;;;1.23;1.10;;;22.70;54.00;;;;;;4994803;28;20420;-67
2024/03/27 11:11:50;;;;;;;1.30;1.10;;;22.70;54.00;;;;;;4994949;28;20895;-69
2024/03/27 11:14:24;;;;;;;1.03;0.90;;;22.70;54.00;;;;;;4977258;28;20440;-69
2024/03/27 11:16:51;;;;;;;1.20;1.10;;;22.70;54.00;;;;;;4994960;28;20413;-68
2024/03/27 11:19:28;;;;;;;1.07;0.90;;;22.70;54.00;;;;;;4976845;28;20464;-69
2024/03/27 11:22:07;;;;;;;1.20;1.10;;;22.70;54.00;;;;;;4962228;28;20424;-68
2024/03/27 11:24:33;;;;;;;1.07;0.93;;;22.70;54.00;;;;;;4976884;28;20428;-69
2024/03/27 11:27:03;;;;;;;1.10;1.00;;;22.70;54.00;;;;;;4994672;28;20420;-67
2024/03/27 11:29:30;;;;;;;1.60;1.07;;;22.70;54.00;;;;;;4976720;28;20422;-67
2024/03/27 11:32:04;;;;;;;1.10;1.00;;;22.70;54.00;;;;;;4976362;28;20424;-69
2024/03/27 11:34:30;;;;;;;1.43;1.17;;;22.70;54.00;;;;;;4994076;28;20919;-69
2024/03/27 11:36:57;;;;;;;1.40;1.30;;;22.70;54.00;;;;;;4976828;28;20431;-68
2024/03/27 11:39:23;;;;;;;1.10;1.00;;;22.70;53.90;;;;;;4994061;28;20424;-68
2024/03/27 11:41:50;;;;;;;1.27;0.90;;;22.70;54.00;;;;;;4976460;28;20424;-67
2024/03/27 11:44:16;;;;;;;1.47;1.20;;;22.70;53.90;;;;;;4976561;28;20408;-70
2024/03/27 11:46:42;;;;;;;1.30;1.13;;;22.70;54.00;;;;;;4976260;28;20432;-68
2024/03/27 11:49:08;;;;;;;1.40;1.10;;;22.70;53.90;;;;;;4993897;28;20478;-68
2024/03/27 11:51:35;;;;;;;1.33;1.20;;;22.70;53.90;;;;;;4976308;28;20468;-68
2024/03/27 11:54:00;;;;;;;1.10;0.90;;;22.70;53.90;;;;;;4975988;28;20189;-69
2024/03/27 11:56:31;;;;;;;1.20;1.00;;;22.70;53.90;;;;;;4993063;28;20914;-67
2024/03/27 11:58:57;;;;;;;1.20;1.10;;;22.70;53.90;;;;;;4960648;28;20675;-68
2024/03/27 12:01:24;;;;;;;1.10;1.00;;;22.70;53.90;;;;;;4976214;28;20440;-68
2024/03/27 12:03:51;;;;;;;1.73;1.10;;;22.70;53.90;;;;;;4976361;28;20412;-68
2024/03/27 12:06:19;;;;;;;1.53;1.10;;;22.70;53.90;;;;;;4975967;28;20420;-67
2024/03/27 12:08:44;;;;;;;1.10;0.80;;;22.70;53.90;;;;;;4960231;28;20508;-67
2024/03/27 12:11:10;;;;;;;1.23;1.13;;;22.70;53.90;;;;;;4976088;28;20530;-69
2024/03/27 12:13:37;;;;;;;1.00;0.80;;;22.70;53.90;;;;;;4993727;28;20185;-68
2024/03/27 12:16:09;;;;;;;1.10;0.80;;;22.70;54.00;;;;;;4993662;28;20188;-68
2024/03/27 12:18:43;;;;;;;1.10;0.80;;;22.70;54.00;;;;;;4993847;28;20512;-69
2024/03/27 12:21:09;;;;;;;1.10;1.00;;;22.70;54.10;;;;;;4975891;28;20534;-68
2024/03/27 12:23:38;;;;;;;1.43;1.00;;;22.70;54.10;;;;;;4994277;28;20989;-68
2024/03/27 12:26:14;;;;;;;1.00;0.80;;;22.70;54.10;;;;;;4961933;28;21002;-69
2024/03/27 12:28:40;;;;;;;1.50;1.03;;;22.70;54.10;;;;;;4977313;28;20508;-69
2024/03/27 12:31:06;;;;;;;1.00;0.87;;;22.70;54.10;;;;;;4994931;28;20547;-68
2024/03/27 12:33:32;;;;;;;1.30;0.90;;;22.70;54.10;;;;;;4994329;28;20860;-68
2024/03/27 12:35:58;;;;;;;1.17;0.93;;;22.70;54.00;;;;;;4977075;28;20220;-69
2024/03/27 12:38:24;;;;;;;1.13;0.90;;;22.70;54.10;;;;;;4977291;28;20491;-68
2024/03/27 12:40:50;;;;;;;0.90;0.80;;;22.70;54.10;;;;;;4995096;28;20814;-69
2024/03/27 12:43:16;;;;;;;0.90;0.70;;;22.70;54.10;;;;;;4976260;28;20512;-68
2024/03/27 12:45:41;;;;;;;1.10;0.90;;;22.70;54.10;;;;;;4994277;28;20177;-69